sensor_id;sensor_type;location;lat;lon;timestamp;pressure;altitude;pressure_sealevel;temperature;humidity
62617;BME280;62539;51.190;6.808;2023-09-19T00:00:19;100583.69;;;24.41;56.21
62617;BME280;62539;51.190;6.808;2023-09-19T00:03:05;100585.59;;;24.39;56.20
62617;BME280;62539;51.190;6.808;2023-09-19T00:05:34;100597.13;;;24.37;56.31
62617;BME280;62539;51.190;6.808;2023-09-19T00:08:01;100589.19;;;24.37;56.55
62617;BME280;62539;51.190;6.808;2023-09-19T00:10:32;100589.28;;;24.36;56.56
62617;BME280;62539;51.190;6.808;2023-09-19T00:13:02;100591.06;;;24.35;56.37
62617;BME280;62539;51.190;6.808;2023-09-19T00:15:45;100599.97;;;24.34;56.19
62617;BME280;62539;51.190;6.808;2023-09-19T00:18:15;100594.66;;;24.34;56.38
62617;BME280;62539;51.190;6.808;2023-09-19T00:20:42;100599.13;;;24.34;56.42
62617;BME280;62539;51.190;6.808;2023-09-19T00:23:08;100604.44;;;24.34;56.43
62617;BME280;62539;51.190;6.808;2023-09-19T00:25:37;100591.25;;;24.32;56.47
62617;BME280;62539;51.190;6.808;2023-09-19T00:28:06;100592.22;;;24.31;56.34
62617;BME280;62539;51.190;6.808;2023-09-19T00:30:33;100589.56;;;24.31;56.16
62617;BME280;62539;51.190;6.808;2023-09-19T00:33:01;100591.44;;;24.29;56.53
62617;BME280;62539;51.190;6.808;2023-09-19T00:35:30;100602.06;;;24.29;56.45
62617;BME280;62539;51.190;6.808;2023-09-19T00:37:56;100600.34;;;24.28;56.24
62617;BME280;62539;51.190;6.808;2023-09-19T00:40:21;100605.66;;;24.28;56.29
62617;BME280;62539;51.190;6.808;2023-09-19T00:42:48;100603.13;;;24.27;56.37
62617;BME280;62539;51.190;6.808;2023-09-19T00:45:16;100611.91;;;24.27;56.13
62617;BME280;62539;51.190;6.808;2023-09-19T00:47:50;100606.72;;;24.26;56.26
62617;BME280;62539;51.190;6.808;2023-09-19T00:50:17;100609.44;;;24.24;56.53
62617;BME280;62539;51.190;6.808;2023-09-19T00:52:46;100618.34;;;24.23;56.21
62617;BME280;62539;51.190;6.808;2023-09-19T00:55:14;100613.97;;;24.22;56.12
62617;BME280;62539;51.190;6.808;2023-09-19T00:57:41;100617.50;;;24.22;56.49
62617;BME280;62539;51.190;6.808;2023-09-19T01:00:09;100626.28;;;24.23;56.60
62617;BME280;62539;51.190;6.808;2023-09-19T01:02:44;100626.41;;;24.21;56.03
62617;BME280;62539;51.190;6.808;2023-09-19T01:05:10;100620.22;;;24.21;56.54
62617;BME280;62539;51.190;6.808;2023-09-19T01:07:36;100620.22;;;24.21;56.05
62617;BME280;62539;51.190;6.808;2023-09-19T01:10:06;100630.00;;;24.20;56.39
62617;BME280;62539;51.190;6.808;2023-09-19T01:13:05;100623.00;;;24.19;56.32
62617;BME280;62539;51.190;6.808;2023-09-19T01:25:00;100646.16;;;24.16;56.09
62617;BME280;62539;51.190;6.808;2023-09-19T01:27:52;100644.44;;;24.15;56.15
62617;BME280;62539;51.190;6.808;2023-09-19T01:30:32;100647.09;;;24.15;56.03
62617;BME280;62539;51.190;6.808;2023-09-19T01:33:01;100646.28;;;24.14;56.00
62617;BME280;62539;51.190;6.808;2023-09-19T01:35:29;100645.41;;;24.14;56.10
62617;BME280;62539;51.190;6.808;2023-09-19T01:37:54;100653.34;;;24.14;56.15
62617;BME280;62539;51.190;6.808;2023-09-19T01:40:21;100655.16;;;24.13;55.89
62617;BME280;62539;51.190;6.808;2023-09-19T01:42:54;100656.00;;;24.14;56.17
62617;BME280;62539;51.190;6.808;2023-09-19T01:51:42;100659.69;;;24.11;55.96
62617;BME280;62539;51.190;6.808;2023-09-19T01:54:19;100666.78;;;24.11;56.03
62617;BME280;62539;51.190;6.808;2023-09-19T01:57:03;100666.78;;;24.11;56.36
62617;BME280;62539;51.190;6.808;2023-09-19T01:59:49;100668.69;;;24.08;55.97
62617;BME280;62539;51.190;6.808;2023-09-19T02:02:21;100667.72;;;24.10;56.00
62617;BME280;62539;51.190;6.808;2023-09-19T02:04:48;100679.28;;;24.08;56.32
62617;BME280;62539;51.190;6.808;2023-09-19T02:07:16;100671.31;;;24.08;56.37
62617;BME280;62539;51.190;6.808;2023-09-19T02:09:42;100676.63;;;24.08;56.05
62617;BME280;62539;51.190;6.808;2023-09-19T02:12:09;100672.25;;;24.07;56.20
62617;BME280;62539;51.190;6.808;2023-09-19T02:14:34;100676.63;;;24.08;56.00
62617;BME280;62539;51.190;6.808;2023-09-19T02:17:02;100670.56;;;24.06;56.00
62617;BME280;62539;51.190;6.808;2023-09-19T02:19:32;100675.88;;;24.06;55.96
62617;BME280;62539;51.190;6.808;2023-09-19T02:21:59;100675.88;;;24.06;56.04
62617;BME280;62539;51.190;6.808;2023-09-19T02:24:25;100690.81;;;24.07;55.94
62617;BME280;62539;51.190;6.808;2023-09-19T02:26:52;100683.81;;;24.06;55.85
62617;BME280;62539;51.190;6.808;2023-09-19T02:29:17;100690.06;;;24.05;56.28
62617;BME280;62539;51.190;6.808;2023-09-19T02:31:43;100693.66;;;24.04;55.97
62617;BME280;62539;51.190;6.808;2023-09-19T02:34:08;100698.00;;;24.05;55.71
62617;BME280;62539;51.190;6.808;2023-09-19T02:36:35;100695.47;;;24.04;55.85
62617;BME280;62539;51.190;6.808;2023-09-19T02:39:01;100704.25;;;24.04;55.87
62617;BME280;62539;51.190;6.808;2023-09-19T02:41:26;100703.50;;;24.02;55.89
62617;BME280;62539;51.190;6.808;2023-09-19T02:43:54;100703.50;;;24.02;56.20
62617;BME280;62539;51.190;6.808;2023-09-19T02:46:20;100704.44;;;24.01;56.11
62617;BME280;62539;51.190;6.808;2023-09-19T02:48:45;100698.28;;;24.01;55.73
62617;BME280;62539;51.190;6.808;2023-09-19T02:51:10;100697.44;;;24.00;55.72
62617;BME280;62539;51.190;6.808;2023-09-19T02:53:36;100705.38;;;24.00;55.60
62617;BME280;62539;51.190;6.808;2023-09-19T02:56:01;100706.31;;;23.99;55.80
62617;BME280;62539;51.190;6.808;2023-09-19T02:58:29;100703.66;;;23.99;55.96
62617;BME280;62539;51.190;6.808;2023-09-19T03:00:55;100700.22;;;23.97;55.66
62617;BME280;62539;51.190;6.808;2023-09-19T03:03:21;100710.81;;;23.97;55.87
62617;BME280;62539;51.190;6.808;2023-09-19T03:05:46;100711.75;;;23.96;56.05
62617;BME280;62539;51.190;6.808;2023-09-19T03:08:15;100708.34;;;23.94;56.04
62617;BME280;62539;51.190;6.808;2023-09-19T03:10:42;100714.53;;;23.95;56.02
62617;BME280;62539;51.190;6.808;2023-09-19T03:13:07;100725.19;;;23.93;55.61
62617;BME280;62539;51.190;6.808;2023-09-19T03:15:35;100722.53;;;23.93;55.59
62617;BME280;62539;51.190;6.808;2023-09-19T03:18:04;100726.13;;;23.92;55.95
62617;BME280;62539;51.190;6.808;2023-09-19T03:20:30;100720.84;;;23.92;55.83
62617;BME280;62539;51.190;6.808;2023-09-19T03:22:55;100727.06;;;23.91;55.48
62617;BME280;62539;51.190;6.808;2023-09-19T03:25:22;100713.94;;;23.89;55.93
62617;BME280;62539;51.190;6.808;2023-09-19T03:27:47;100719.31;;;23.88;55.64
62617;BME280;62539;51.190;6.808;2023-09-19T03:30:13;100716.66;;;23.88;55.87
62617;BME280;62539;51.190;6.808;2023-09-19T03:32:48;100714.88;;;23.88;55.44
62617;BME280;62539;51.190;6.808;2023-09-19T03:35:15;100712.31;;;23.87;55.73
62617;BME280;62539;51.190;6.808;2023-09-19T03:37:42;100715.88;;;23.86;55.79
62617;BME280;62539;51.190;6.808;2023-09-19T03:40:09;100722.16;;;23.85;55.68
62617;BME280;62539;51.190;6.808;2023-09-19T03:42:39;100722.16;;;23.85;55.81
62617;BME280;62539;51.190;6.808;2023-09-19T03:45:07;100714.22;;;23.85;55.39
62617;BME280;62539;51.190;6.808;2023-09-19T03:47:37;100716.94;;;23.83;55.81
62617;BME280;62539;51.190;6.808;2023-09-19T03:50:04;100710.81;;;23.83;55.63
62617;BME280;62539;51.190;6.808;2023-09-19T03:52:32;100717.97;;;23.81;55.74
62617;BME280;62539;51.190;6.808;2023-09-19T03:54:57;100713.53;;;23.81;55.31
62617;BME280;62539;51.190;6.808;2023-09-19T03:57:23;100715.34;;;23.81;55.26
62617;BME280;62539;51.190;6.808;2023-09-19T03:59:49;100710.88;;;23.81;55.21
62617;BME280;62539;51.190;6.808;2023-09-19T04:02:14;100718.94;;;23.80;55.24
62617;BME280;62539;51.190;6.808;2023-09-19T04:04:56;100721.56;;;23.80;55.64
62617;BME280;62539;51.190;6.808;2023-09-19T04:07:21;100710.22;;;23.77;55.37
62617;BME280;62539;51.190;6.808;2023-09-19T04:09:48;100716.47;;;23.76;55.23
62617;BME280;62539;51.190;6.808;2023-09-19T04:12:14;100715.59;;;23.76;55.04
62617;BME280;62539;51.190;6.808;2023-09-19T04:14:42;100719.09;;;23.76;55.50
62617;BME280;62539;51.190;6.808;2023-09-19T04:17:07;100718.34;;;23.74;55.63
62617;BME280;62539;51.190;6.808;2023-09-19T04:19:33;100723.63;;;23.74;55.15
62617;BME280;62539;51.190;6.808;2023-09-19T04:21:58;100716.63;;;23.73;55.25
62617;BME280;62539;51.190;6.808;2023-09-19T04:24:24;100709.53;;;23.74;55.38
62617;BME280;62539;51.190;6.808;2023-09-19T04:26:49;100718.34;;;23.74;55.46
62617;BME280;62539;51.190;6.808;2023-09-19T04:29:14;100714.94;;;23.72;55.54
62617;BME280;62539;51.190;6.808;2023-09-19T04:31:40;100723.81;;;23.71;55.26
62617;BME280;62539;51.190;6.808;2023-09-19T04:34:09;100724.66;;;23.72;55.48
62617;BME280;62539;51.190;6.808;2023-09-19T04:36:35;100730.88;;;23.71;55.74
62617;BME280;62539;51.190;6.808;2023-09-19T04:39:02;100737.88;;;23.72;55.69
62617;BME280;62539;51.190;6.808;2023-09-19T04:41:32;100732.69;;;23.70;55.61
62617;BME280;62539;51.190;6.808;2023-09-19T04:43:59;100731.81;;;23.70;55.94
62617;BME280;62539;51.190;6.808;2023-09-19T04:46:24;100729.28;;;23.68;56.17
62617;BME280;62539;51.190;6.808;2023-09-19T04:48:49;100728.41;;;23.68;56.39
62617;BME280;62539;51.190;6.808;2023-09-19T04:51:15;100728.53;;;23.66;56.09
62617;BME280;62539;51.190;6.808;2023-09-19T04:53:41;100729.47;;;23.65;56.40
62617;BME280;62539;51.190;6.808;2023-09-19T04:56:07;100730.41;;;23.64;56.21
62617;BME280;62539;51.190;6.808;2023-09-19T04:58:33;100730.41;;;23.64;56.34
62617;BME280;62539;51.190;6.808;2023-09-19T05:00:59;100727.75;;;23.64;56.21
62617;BME280;62539;51.190;6.808;2023-09-19T05:03:24;100737.41;;;23.65;56.29
62617;BME280;62539;51.190;6.808;2023-09-19T05:05:50;100742.78;;;23.63;56.41
62617;BME280;62539;51.190;6.808;2023-09-19T05:08:15;100735.69;;;23.64;56.40
62617;BME280;62539;51.190;6.808;2023-09-19T05:10:41;100739.88;;;23.68;54.49
62617;BME280;62539;51.190;6.808;2023-09-19T05:13:06;100746.44;;;23.77;48.72
62617;BME280;62539;51.190;6.808;2023-09-19T05:15:33;100746.19;;;23.82;48.85
62617;BME280;62539;51.190;6.808;2023-09-19T05:18:00;100749.38;;;23.87;49.61
62617;BME280;62539;51.190;6.808;2023-09-19T05:20:26;100753.56;;;23.91;48.73
62617;BME280;62539;51.190;6.808;2023-09-19T05:23:01;100757.16;;;23.90;47.88
62617;BME280;62539;51.190;6.808;2023-09-19T05:25:35;100772.03;;;23.92;48.37
62617;BME280;62539;51.190;6.808;2023-09-19T05:28:08;100772.97;;;23.91;48.79
62617;BME280;62539;51.190;6.808;2023-09-19T05:30:37;100775.63;;;23.91;48.12
62617;BME280;62539;51.190;6.808;2023-09-19T05:33:04;100781.00;;;23.90;48.59
62617;BME280;62539;51.190;6.808;2023-09-19T05:35:30;100779.69;;;23.83;49.01
62617;BME280;62539;51.190;6.808;2023-09-19T05:37:57;100788.56;;;23.82;46.44
62617;BME280;62539;51.190;6.808;2023-09-19T05:40:23;100793.69;;;23.85;47.64
62617;BME280;62539;51.190;6.808;2023-09-19T05:42:50;100803.25;;;23.87;47.26
62617;BME280;62539;51.190;6.808;2023-09-19T05:45:16;100805.72;;;23.90;47.95
62617;BME280;62539;51.190;6.808;2023-09-19T05:47:48;100811.84;;;23.91;47.91
62617;BME280;62539;51.190;6.808;2023-09-19T05:50:16;100812.78;;;23.90;48.06
62617;BME280;62539;51.190;6.808;2023-09-19T05:52:42;100805.63;;;23.92;48.17
62617;BME280;62539;51.190;6.808;2023-09-19T05:55:09;100805.63;;;23.92;47.89
62617;BME280;62539;51.190;6.808;2023-09-19T05:57:36;100812.78;;;23.90;48.29
62617;BME280;62539;51.190;6.808;2023-09-19T06:00:05;100825.09;;;23.91;48.11
62617;BME280;62539;51.190;6.808;2023-09-19T06:02:37;100832.09;;;23.92;48.27
62617;BME280;62539;51.190;6.808;2023-09-19T06:05:04;100834.00;;;23.90;48.29
62617;BME280;62539;51.190;6.808;2023-09-19T06:07:32;100840.94;;;23.92;48.30
62617;BME280;62539;51.190;6.808;2023-09-19T06:10:05;100858.59;;;23.92;48.30
62617;BME280;62539;51.190;6.808;2023-09-19T06:12:32;100851.75;;;23.88;48.41
62617;BME280;62539;51.190;6.808;2023-09-19T06:15:03;100848.56;;;23.83;48.32
62617;BME280;62539;51.190;6.808;2023-09-19T06:17:30;100841.72;;;23.78;49.00
62617;BME280;62539;51.190;6.808;2023-09-19T06:19:56;100847.19;;;23.75;49.05
62617;BME280;62539;51.190;6.808;2023-09-19T06:22:21;100835.88;;;23.72;49.13
62617;BME280;62539;51.190;6.808;2023-09-19T06:24:49;100839.56;;;23.69;49.39
62617;BME280;62539;51.190;6.808;2023-09-19T06:27:15;100833.41;;;23.69;49.25
62617;BME280;62539;51.190;6.808;2023-09-19T06:29:40;100838.81;;;23.67;49.82
62617;BME280;62539;51.190;6.808;2023-09-19T06:32:07;100840.50;;;23.68;49.92
62617;BME280;62539;51.190;6.808;2023-09-19T06:34:37;100840.50;;;23.68;49.92
62617;BME280;62539;51.190;6.808;2023-09-19T06:37:04;100833.50;;;23.67;50.25
62617;BME280;62539;51.190;6.808;2023-09-19T06:39:31;100840.50;;;23.68;50.31
62617;BME280;62539;51.190;6.808;2023-09-19T06:41:57;100837.75;;;23.70;50.54
62617;BME280;62539;51.190;6.808;2023-09-19T06:44:23;100832.47;;;23.70;50.40
62617;BME280;62539;51.190;6.808;2023-09-19T06:46:50;100835.03;;;23.71;50.68
62617;BME280;62539;51.190;6.808;2023-09-19T06:49:19;100835.13;;;23.70;50.41
62617;BME280;62539;51.190;6.808;2023-09-19T06:51:44;100836.75;;;23.72;50.81
62617;BME280;62539;51.190;6.808;2023-09-19T06:54:10;100845.66;;;23.71;50.69
62617;BME280;62539;51.190;6.808;2023-09-19T06:56:36;100839.31;;;23.74;50.78
62617;BME280;62539;51.190;6.808;2023-09-19T06:59:01;100844.53;;;23.75;50.58
62617;BME280;62539;51.190;6.808;2023-09-19T07:01:28;100842.66;;;23.77;50.68
62617;BME280;62539;51.190;6.808;2023-09-19T07:03:54;100840.84;;;23.78;51.03
62617;BME280;62539;51.190;6.808;2023-09-19T07:06:19;100852.31;;;23.78;51.00
62617;BME280;62539;51.190;6.808;2023-09-19T07:08:45;100849.66;;;23.78;51.11
62617;BME280;62539;51.190;6.808;2023-09-19T07:11:10;100854.78;;;23.82;50.87
62617;BME280;62539;51.190;6.808;2023-09-19T07:13:37;100848.56;;;23.83;51.08
62617;BME280;62539;51.190;6.808;2023-09-19T07:16:03;100854.63;;;23.85;50.95
62617;BME280;62539;51.190;6.808;2023-09-19T07:18:29;100851.97;;;23.85;50.88
62617;BME280;62539;51.190;6.808;2023-09-19T07:20:58;100859.81;;;23.86;50.94
62617;BME280;62539;51.190;6.808;2023-09-19T07:23:30;100858.00;;;23.87;51.35
62617;BME280;62539;51.190;6.808;2023-09-19T07:26:00;100860.47;;;23.90;51.04
62617;BME280;62539;51.190;6.808;2023-09-19T07:28:26;100863.91;;;23.92;51.18
62617;BME280;62539;51.190;6.808;2023-09-19T07:30:52;100863.72;;;23.95;51.06
62617;BME280;62539;51.190;6.808;2023-09-19T07:33:17;100866.19;;;23.98;51.20
62617;BME280;62539;51.190;6.808;2023-09-19T07:35:47;100867.88;;;24.01;51.57
62617;BME280;62539;51.190;6.808;2023-09-19T07:38:12;100873.84;;;24.04;51.51
62617;BME280;62539;51.190;6.808;2023-09-19T07:40:38;100872.84;;;24.07;51.57
62617;BME280;62539;51.190;6.808;2023-09-19T07:43:04;100877.09;;;24.10;51.56
62617;BME280;62539;51.190;6.808;2023-09-19T07:45:32;100882.22;;;24.13;51.35
62617;BME280;62539;51.190;6.808;2023-09-19T07:47:57;100882.91;;;24.16;51.46
62617;BME280;62539;51.190;6.808;2023-09-19T07:50:23;100875.72;;;24.18;51.34
62617;BME280;62539;51.190;6.808;2023-09-19T07:52:51;100865.78;;;24.22;51.10
62617;BME280;62539;51.190;6.808;2023-09-19T07:55:18;100874.34;;;24.27;51.11
62617;BME280;62539;51.190;6.808;2023-09-19T07:57:44;100870.56;;;24.31;51.20
62617;BME280;62539;51.190;6.808;2023-09-19T08:00:11;100880.81;;;24.37;50.89
62617;BME280;62539;51.190;6.808;2023-09-19T08:02:41;100874.38;;;24.42;50.68
62617;BME280;62539;51.190;6.808;2023-09-19T08:05:09;100879.44;;;24.46;50.71
62617;BME280;62539;51.190;6.808;2023-09-19T08:07:40;100879.16;;;24.51;50.53
62617;BME280;62539;51.190;6.808;2023-09-19T08:10:07;100888.66;;;24.55;50.66
62617;BME280;62539;51.190;6.808;2023-09-19T08:12:36;100892.75;;;24.61;50.29
62617;BME280;62539;51.190;6.808;2023-09-19T08:15:03;100897.78;;;24.65;50.54
62617;BME280;62539;51.190;6.808;2023-09-19T08:17:28;100889.63;;;24.69;50.49
62617;BME280;62539;51.190;6.808;2023-09-19T08:19:54;100885.88;;;24.73;50.44
62617;BME280;62539;51.190;6.808;2023-09-19T08:22:20;100884.88;;;24.75;50.11
62617;BME280;62539;51.190;6.808;2023-09-19T08:24:46;100886.41;;;24.79;50.43
62617;BME280;62539;51.190;6.808;2023-09-19T08:27:13;100900.31;;;24.83;50.07
62617;BME280;62539;51.190;6.808;2023-09-19T08:29:38;100898.25;;;24.88;50.24
62617;BME280;62539;51.190;6.808;2023-09-19T08:32:05;100906.03;;;24.91;49.99
62617;BME280;62539;51.190;6.808;2023-09-19T08:34:30;100905.94;;;24.93;50.00
62617;BME280;62539;51.190;6.808;2023-09-19T08:36:59;100916.28;;;24.98;49.79
62617;BME280;62539;51.190;6.808;2023-09-19T08:39:25;100908.31;;;24.98;49.90
62617;BME280;62539;51.190;6.808;2023-09-19T08:41:57;100907.19;;;25.02;49.70
62617;BME280;62539;51.190;6.808;2023-09-19T08:44:24;100907.28;;;25.00;49.93
62617;BME280;62539;51.190;6.808;2023-09-19T08:46:54;100914.19;;;25.03;49.82
62617;BME280;62539;51.190;6.808;2023-09-19T08:52:16;100902.19;;;25.12;49.20
62617;BME280;62539;51.190;6.808;2023-09-19T08:54:51;100911.75;;;25.14;49.51
62617;BME280;62539;51.190;6.808;2023-09-19T08:57:19;100903.59;;;25.17;49.35
62617;BME280;62539;51.190;6.808;2023-09-19T08:59:50;100907.97;;;25.18;49.41
62617;BME280;62539;51.190;6.808;2023-09-19T09:02:16;100905.88;;;25.23;48.94
62617;BME280;62539;51.190;6.808;2023-09-19T09:04:47;100904.75;;;25.28;48.86
62617;BME280;62539;51.190;6.808;2023-09-19T09:07:14;100917.75;;;25.32;49.13
62617;BME280;62539;51.190;6.808;2023-09-19T09:09:42;100920.03;;;25.38;48.63
62617;BME280;62539;51.190;6.808;2023-09-19T09:12:11;100917.78;;;25.47;48.79
62617;BME280;62539;51.190;6.808;2023-09-19T09:14:39;100906.78;;;25.53;48.33
62617;BME280;62539;51.190;6.808;2023-09-19T09:17:05;100910.47;;;25.65;48.12
62617;BME280;62539;51.190;6.808;2023-09-19T09:19:31;100894.13;;;25.71;48.00
62617;BME280;62539;51.190;6.808;2023-09-19T09:22:17;100891.66;;;25.82;47.67
62617;BME280;62539;51.190;6.808;2023-09-19T09:24:56;100892.56;;;25.96;47.57
62617;BME280;62539;51.190;6.808;2023-09-19T09:27:30;100896.38;;;25.92;47.32
62617;BME280;62539;51.190;6.808;2023-09-19T09:29:58;100895.19;;;26.10;46.87
62617;BME280;62539;51.190;6.808;2023-09-19T09:32:27;100893.28;;;26.12;47.24
62617;BME280;62539;51.190;6.808;2023-09-19T09:34:58;100900.09;;;26.31;46.74
62617;BME280;62539;51.190;6.808;2023-09-19T09:37:26;100895.19;;;26.10;47.08
62617;BME280;62539;51.190;6.808;2023-09-19T09:39:59;100893.13;;;26.01;47.19
62617;BME280;62539;51.190;6.808;2023-09-19T09:42:48;100896.78;;;26.27;46.57
62617;BME280;62539;51.190;6.808;2023-09-19T09:45:24;100891.72;;;25.95;47.48
62617;BME280;62539;51.190;6.808;2023-09-19T09:47:59;100898.50;;;26.29;46.62
62617;BME280;62539;51.190;6.808;2023-09-19T09:50:31;100900.34;;;25.99;47.57
62617;BME280;62539;51.190;6.808;2023-09-19T09:53:29;100892.91;;;26.19;46.99
62617;BME280;62539;51.190;6.808;2023-09-19T09:56:01;100898.72;;;26.38;46.63
62617;BME280;62539;51.190;6.808;2023-09-19T10:01:14;100902.81;;;26.44;46.24
62617;BME280;62539;51.190;6.808;2023-09-19T10:03:43;100894.16;;;26.40;46.35
62617;BME280;62539;51.190;6.808;2023-09-19T10:06:14;100895.47;;;26.88;45.15
62617;BME280;62539;51.190;6.808;2023-09-19T10:09:05;100902.63;;;27.26;44.35
62617;BME280;62539;51.190;6.808;2023-09-19T10:11:44;100895.25;;;27.43;44.10
62617;BME280;62539;51.190;6.808;2023-09-19T10:14:12;100893.13;;;26.96;45.12
62617;BME280;62539;51.190;6.808;2023-09-19T10:16:48;100890.25;;;27.51;44.05
62617;BME280;62539;51.190;6.808;2023-09-19T10:19:23;100888.84;;;27.46;44.05
62617;BME280;62539;51.190;6.808;2023-09-19T10:21:56;100883.28;;;27.75;43.53
62617;BME280;62539;51.190;6.808;2023-09-19T10:24:25;100889.47;;;27.75;43.29
62617;BME280;62539;51.190;6.808;2023-09-19T10:26:53;100878.31;;;27.31;44.44
62617;BME280;62539;51.190;6.808;2023-09-19T10:29:21;100869.25;;;27.60;43.82
62617;BME280;62539;51.190;6.808;2023-09-19T10:31:52;100864.06;;;28.20;42.73
62617;BME280;62539;51.190;6.808;2023-09-19T10:34:19;100869.28;;;28.57;41.62
62617;BME280;62539;51.190;6.808;2023-09-19T10:36:47;100866.25;;;28.97;40.77
62617;BME280;62539;51.190;6.808;2023-09-19T10:39:15;100870.38;;;29.36;40.18
62617;BME280;62539;51.190;6.808;2023-09-19T10:41:47;100871.59;;;29.43;39.80
62617;BME280;62539;51.190;6.808;2023-09-19T10:44:21;100871.75;;;29.41;39.83
62617;BME280;62539;51.190;6.808;2023-09-19T10:46:54;100879.84;;;29.28;40.29
62617;BME280;62539;51.190;6.808;2023-09-19T10:49:20;100877.41;;;29.02;40.63
62617;BME280;62539;51.190;6.808;2023-09-19T10:51:47;100879.81;;;28.83;40.70
62617;BME280;62539;51.190;6.808;2023-09-19T10:54:19;100870.59;;;28.87;38.78
62617;BME280;62539;51.190;6.808;2023-09-19T10:56:52;100872.53;;;29.19;37.50
62617;BME280;62539;51.190;6.808;2023-09-19T10:59:20;100878.25;;;28.56;37.88
62617;BME280;62539;51.190;6.808;2023-09-19T11:01:50;100884.72;;;29.57;35.62
62617;BME280;62539;51.190;6.808;2023-09-19T11:04:31;100869.59;;;30.56;33.52
62617;BME280;62539;51.190;6.808;2023-09-19T11:07:06;100876.72;;;31.09;32.68
62617;BME280;62539;51.190;6.808;2023-09-19T11:09:49;100870.59;;;31.59;31.34
62617;BME280;62539;51.190;6.808;2023-09-19T11:26:43;100880.53;;;29.87;34.10
62617;BME280;62539;51.190;6.808;2023-09-19T11:29:29;100881.28;;;29.78;34.91
62617;BME280;62539;51.190;6.808;2023-09-19T11:31:56;100869.75;;;29.77;35.27
62617;BME280;62539;51.190;6.808;2023-09-19T11:39:36;100887.88;;;29.40;36.60
62617;BME280;62539;51.190;6.808;2023-09-19T11:45:07;100876.19;;;29.29;37.28
62617;BME280;62539;51.190;6.808;2023-09-19T11:47:33;100879.34;;;29.23;38.01
62617;BME280;62539;51.190;6.808;2023-09-19T11:50:01;100876.09;;;29.19;38.15
62617;BME280;62539;51.190;6.808;2023-09-19T11:52:28;100878.84;;;29.18;38.06
62617;BME280;62539;51.190;6.808;2023-09-19T11:55:00;100862.97;;;29.16;38.56
62617;BME280;62539;51.190;6.808;2023-09-19T11:57:28;100875.72;;;29.13;39.09
62617;BME280;62539;51.190;6.808;2023-09-19T11:59:55;100867.00;;;29.11;39.24
62617;BME280;62539;51.190;6.808;2023-09-19T12:02:39;100867.47;;;29.04;39.53
62617;BME280;62539;51.190;6.808;2023-09-19T12:05:07;100862.38;;;29.01;39.25
62617;BME280;62539;51.190;6.808;2023-09-19T12:07:42;100866.97;;;28.99;39.40
62617;BME280;62539;51.190;6.808;2023-09-19T12:10:13;100853.97;;;29.06;39.39
62617;BME280;62539;51.190;6.808;2023-09-19T12:12:47;100851.06;;;29.09;39.31
62617;BME280;62539;51.190;6.808;2023-09-19T12:15:14;100849.13;;;29.11;39.43
62617;BME280;62539;51.190;6.808;2023-09-19T12:17:41;100838.56;;;29.10;39.33
62617;BME280;62539;51.190;6.808;2023-09-19T12:20:09;100839.41;;;29.10;39.26
62617;BME280;62539;51.190;6.808;2023-09-19T12:22:42;100844.66;;;29.12;39.43
62617;BME280;62539;51.190;6.808;2023-09-19T12:25:08;100843.69;;;29.13;39.37
62617;BME280;62539;51.190;6.808;2023-09-19T12:27:43;100836.50;;;29.13;39.43
62617;BME280;62539;51.190;6.808;2023-09-19T12:30:12;100856.06;;;29.14;39.85
62617;BME280;62539;51.190;6.808;2023-09-19T12:32:44;100840.75;;;29.16;39.47
62617;BME280;62539;51.190;6.808;2023-09-19T12:35:27;100841.59;;;29.16;38.54
62617;BME280;62539;51.190;6.808;2023-09-19T12:37:54;100821.78;;;29.19;38.31
62617;BME280;62539;51.190;6.808;2023-09-19T12:40:21;100831.28;;;29.12;38.62
62617;BME280;62539;51.190;6.808;2023-09-19T12:42:53;100820.84;;;29.09;38.75
62617;BME280;62539;51.190;6.808;2023-09-19T12:45:28;100824.97;;;29.13;38.86
62617;BME280;62539;51.190;6.808;2023-09-19T12:48:21;100818.16;;;29.31;38.56
62617;BME280;62539;51.190;6.808;2023-09-19T12:51:09;100813.28;;;29.37;38.68
62617;BME280;62539;51.190;6.808;2023-09-19T12:53:42;100802.59;;;29.48;39.02
62617;BME280;62539;51.190;6.808;2023-09-19T12:56:11;100809.75;;;29.59;38.96
62617;BME280;62539;51.190;6.808;2023-09-19T12:59:08;100809.13;;;29.67;38.74
62617;BME280;62539;51.190;6.808;2023-09-19T13:01:37;100813.97;;;29.73;38.66
62617;BME280;62539;51.190;6.808;2023-09-19T13:04:18;100790.38;;;29.78;38.77
62617;BME280;62539;51.190;6.808;2023-09-19T13:06:54;100800.31;;;29.87;38.79
62617;BME280;62539;51.190;6.808;2023-09-19T13:09:24;100798.88;;;29.83;38.66
62617;BME280;62539;51.190;6.808;2023-09-19T13:12:05;100807.97;;;29.92;38.48
62617;BME280;62539;51.190;6.808;2023-09-19T13:15:10;100810.31;;;29.74;39.29
62617;BME280;62539;51.190;6.808;2023-09-19T13:17:48;100812.97;;;29.85;38.86
62617;BME280;62539;51.190;6.808;2023-09-19T13:20:27;100803.47;;;29.37;39.67
62617;BME280;62539;51.190;6.808;2023-09-19T13:22:53;100820.69;;;29.67;39.53
62617;BME280;62539;51.190;6.808;2023-09-19T13:25:35;100816.44;;;29.19;40.51
62617;BME280;62539;51.190;6.808;2023-09-19T13:28:01;100806.97;;;29.26;40.61
62617;BME280;62539;51.190;6.808;2023-09-19T13:30:29;100811.50;;;29.48;40.20
62617;BME280;62539;51.190;6.808;2023-09-19T13:33:10;100810.38;;;29.51;40.04
62617;BME280;62539;51.190;6.808;2023-09-19T13:35:38;100799.44;;;29.54;39.95
62617;BME280;62539;51.190;6.808;2023-09-19T13:38:05;100809.66;;;29.26;40.66
62617;BME280;62539;51.190;6.808;2023-09-19T13:40:34;100806.53;;;28.98;41.25
62617;BME280;62539;51.190;6.808;2023-09-19T13:43:00;100802.50;;;28.81;41.52
62617;BME280;62539;51.190;6.808;2023-09-19T13:45:26;100794.22;;;28.73;41.14